createdAt,value
2022-08-04T00:00:11.407Z,47.78
2022-08-04T00:03:09.773Z,48.11
2022-08-04T00:06:05.444Z,47.78
2022-08-04T00:08:40.818Z,47.79
2022-08-04T00:11:11.468Z,47.86
2022-08-04T00:14:02.304Z,48.19
2022-08-04T00:16:38.350Z,47.85
2022-08-04T00:19:12.321Z,48.20
2022-08-04T00:21:43.142Z,48.34
2022-08-04T00:24:13.216Z,48.00
2022-08-04T00:26:41.279Z,48.19
2022-08-04T00:29:08.094Z,48.31
2022-08-04T00:31:55.013Z,48.55
2022-08-04T00:34:25.427Z,48.22
2022-08-04T00:36:53.907Z,48.25
2022-08-04T00:39:21.608Z,48.63
2022-08-04T00:41:57.262Z,48.72
2022-08-04T00:44:42.357Z,48.87
2022-08-04T00:47:17.713Z,48.67
2022-08-04T00:50:05.483Z,48.59
2022-08-04T00:52:47.727Z,48.81
2022-08-04T00:55:32.653Z,49.08
2022-08-04T00:58:20.303Z,48.71
2022-08-04T01:01:02.472Z,48.89
2022-08-04T01:03:57.065Z,49.12
2022-08-04T01:06:56.174Z,49.14
2022-08-04T01:09:56.125Z,49.36
2022-08-04T01:12:41.099Z,49.31
2022-08-04T01:15:15.712Z,49.30
2022-08-04T01:18:00.144Z,49.45
2022-08-04T01:20:32.172Z,49.32
2022-08-04T01:23:20.242Z,49.22
2022-08-04T01:26:44.212Z,49.52
2022-08-04T01:29:15.857Z,49.51
2022-08-04T01:31:53.372Z,49.68
2022-08-04T01:34:22.324Z,49.45
2022-08-04T01:37:08.141Z,49.52
2022-08-04T01:39:41.524Z,49.43
2022-08-04T01:42:10.750Z,49.87
2022-08-04T01:44:39.792Z,49.51
2022-08-04T01:47:08.994Z,49.93
2022-08-04T01:49:40.491Z,49.75
2022-08-04T01:52:10.833Z,49.69
2022-08-04T01:54:41.315Z,49.81
2022-08-04T01:57:36.649Z,49.97
2022-08-04T01:59:59.674Z,50.13
2022-08-04T02:02:26.528Z,50.11
2022-08-04T02:04:53.249Z,50.05
2022-08-04T02:07:37.976Z,50.04
2022-08-04T02:10:18.437Z,49.95
2022-08-04T02:13:03.696Z,50.12
2022-08-04T02:15:54.876Z,50.16
2022-08-04T02:18:30.762Z,50.26
2022-08-04T02:21:02.458Z,50.16
2022-08-04T02:23:36.802Z,50.11
2022-08-04T02:26:22.608Z,50.22
2022-08-04T02:28:58.756Z,50.46
2022-08-04T02:31:33.538Z,50.49
2022-08-04T02:34:09.809Z,50.66
2022-08-04T02:36:41.892Z,50.66
2022-08-04T02:39:11.101Z,50.30
2022-08-04T02:41:40.162Z,50.44
2022-08-04T02:44:09.376Z,50.63
2022-08-04T02:46:37.834Z,50.53
2022-08-04T02:49:07.933Z,50.81
2022-08-04T02:51:37.024Z,50.67
2022-08-04T02:54:05.434Z,50.64
2022-08-04T02:56:34.105Z,50.90
2022-08-04T02:59:11.870Z,50.66
2022-08-04T03:01:56.930Z,50.95
2022-08-04T03:04:39.642Z,50.97
2022-08-04T03:07:18.355Z,51.05
2022-08-04T03:10:02.936Z,50.95
2022-08-04T03:13:03.507Z,51.08
2022-08-04T03:15:48.597Z,51.18
2022-08-04T03:18:24.026Z,51.12
2022-08-04T03:21:28.209Z,51.00
2022-08-04T03:24:18.190Z,51.07
2022-08-04T03:27:00.503Z,51.00
2022-08-04T03:30:05.817Z,51.04
2022-08-04T03:32:38.467Z,51.38
2022-08-04T03:35:22.516Z,51.24
2022-08-04T03:38:05.099Z,51.44
2022-08-04T03:40:37.366Z,51.25
2022-08-04T03:43:58.405Z,51.32
2022-08-04T03:46:23.996Z,51.47
2022-08-04T03:49:11.993Z,51.30
2022-08-04T03:51:57.311Z,51.37
2022-08-04T03:54:51.862Z,51.66
2022-08-04T03:57:30.704Z,51.66
2022-08-04T04:00:12.603Z,51.45
2022-08-04T04:03:28.175Z,51.38
2022-08-04T04:06:20.584Z,51.51
2022-08-04T04:08:58.539Z,51.62
2022-08-04T04:11:32.129Z,51.61
2022-08-04T04:14:39.187Z,51.60
2022-08-04T04:17:43.975Z,51.69
2022-08-04T04:20:10.829Z,51.71
2022-08-04T04:23:11.728Z,51.94
2022-08-04T04:26:06.476Z,52.06
2022-08-04T04:28:52.860Z,51.68
2022-08-04T04:31:45.813Z,51.97
2022-08-04T04:34:20.304Z,52.16
2022-08-04T04:37:03.756Z,51.85
2022-08-04T04:39:59.169Z,51.96
2022-08-04T04:42:39.592Z,52.24
2022-08-04T04:45:19.180Z,52.17
2022-08-04T04:48:08.136Z,52.09
2022-08-04T04:50:55.224Z,52.07
2022-08-04T04:53:28.699Z,52.12
2022-08-04T04:56:19.371Z,52.15
2022-08-04T04:58:46.074Z,52.01
2022-08-04T05:01:27.877Z,51.91
2022-08-04T05:04:12.438Z,52.08
2022-08-04T05:06:57.499Z,52.12
2022-08-04T05:09:46.306Z,52.15
2022-08-04T05:14:33.017Z,52.30
2022-08-04T05:15:16.838Z,51.92
2022-08-04T05:17:49.621Z,52.01
2022-08-04T05:20:25.377Z,51.98
2022-08-04T05:22:55.120Z,52.35
2022-08-04T05:25:31.962Z,52.33
2022-08-04T05:28:13.533Z,52.14
2022-08-04T05:30:48.720Z,51.96
2022-08-04T05:33:29.224Z,52.34
2022-08-04T05:36:21.678Z,52.28
2022-08-04T05:38:51.561Z,52.53
2022-08-04T05:41:19.605Z,52.06
2022-08-04T05:43:48.148Z,52.55
2022-08-04T05:46:16.650Z,52.44
2022-08-04T05:48:45.145Z,52.08
2022-08-04T05:51:12.760Z,52.07
2022-08-04T05:53:44.257Z,52.25
2022-08-04T05:56:13.318Z,52.48
2022-08-04T05:58:40.788Z,52.13
2022-08-04T06:01:10.885Z,52.33
2022-08-04T06:03:38.675Z,52.03
2022-08-04T06:06:06.902Z,52.03
2022-08-04T06:08:34.320Z,52.17
2022-08-04T06:11:05.496Z,52.19
2022-08-04T06:13:46.774Z,52.07
2022-08-04T06:16:29.888Z,52.12
2022-08-04T06:20:01.047Z,52.17
2022-08-04T06:21:53.906Z,52.61
2022-08-04T06:24:24.842Z,52.22
2022-08-04T06:26:51.739Z,52.41
2022-08-04T06:29:26.962Z,52.44
2022-08-04T06:32:28.386Z,52.44
2022-08-04T06:34:45.742Z,52.29
2022-08-04T06:37:40.875Z,52.40
2022-08-04T06:40:02.908Z,52.18
2022-08-04T06:42:51.285Z,52.08
2022-08-04T06:45:20.379Z,52.56
2022-08-04T06:47:48.802Z,52.46
2022-08-04T06:51:26.619Z,52.09
2022-08-04T06:53:04.484Z,52.19
2022-08-04T06:55:33.792Z,52.41
2022-08-04T06:58:03.387Z,52.47
2022-08-04T07:00:32.023Z,52.27
2022-08-04T07:02:59.632Z,52.12
2022-08-04T07:05:26.822Z,52.22
2022-08-04T07:07:58.286Z,52.01
2022-08-04T07:10:28.158Z,52.09
2022-08-04T07:12:59.899Z,52.11
2022-08-04T07:15:28.280Z,52.10
2022-08-04T07:18:00.238Z,52.04
2022-08-04T07:20:34.411Z,51.88
2022-08-04T07:23:05.886Z,51.93
2022-08-04T07:26:00.425Z,52.01
2022-08-04T07:28:24.339Z,51.98
2022-08-04T07:30:51.243Z,51.78
2022-08-04T07:33:18.992Z,51.94
2022-08-04T07:36:09.391Z,51.81
2022-08-04T07:38:37.886Z,51.92
2022-08-04T07:41:36.487Z,51.50
2022-08-04T07:44:04.293Z,51.86
2022-08-04T07:46:31.589Z,51.43
2022-08-04T07:49:00.846Z,51.42
2022-08-04T07:51:28.876Z,51.42
2022-08-04T07:53:57.228Z,51.43
2022-08-04T07:56:25.775Z,51.04
2022-08-04T07:58:52.527Z,51.38
2022-08-04T08:01:20.026Z,51.34
2022-08-04T08:03:48.028Z,51.07
2022-08-04T08:06:18.001Z,51.04
2022-08-04T08:09:13.013Z,50.92
2022-08-04T08:12:36.344Z,51.28
2022-08-04T08:14:30.812Z,50.64
2022-08-04T08:17:00.108Z,50.66
2022-08-04T08:19:27.041Z,50.88
2022-08-04T08:21:59.745Z,50.67
2022-08-04T08:24:32.019Z,51.16
2022-08-04T08:27:00.524Z,50.75
2022-08-04T08:29:29.600Z,51.09
2022-08-04T08:32:00.487Z,51.06
2022-08-04T08:34:29.594Z,50.57
2022-08-04T08:37:06.091Z,50.85
2022-08-04T08:39:41.097Z,50.77
2022-08-04T08:42:38.560Z,50.40
2022-08-04T08:45:20.695Z,50.42
2022-08-04T08:48:11.057Z,50.36
2022-08-04T08:51:03.172Z,50.57
2022-08-04T08:54:09.736Z,50.35
2022-08-04T08:57:08.888Z,50.11
2022-08-04T09:00:06.046Z,49.88
2022-08-04T09:02:38.829Z,49.90
2022-08-04T09:05:24.040Z,50.01
2022-08-04T09:08:03.280Z,49.64
2022-08-04T09:10:50.788Z,50.08
2022-08-04T09:13:40.154Z,49.47
2022-08-04T09:16:26.996Z,49.83
2022-08-04T09:19:22.672Z,49.77
2022-08-04T09:22:24.933Z,49.60
2022-08-04T09:25:02.921Z,49.19
2022-08-04T09:27:57.524Z,49.10
2022-08-04T09:30:44.073Z,49.27
2022-08-04T09:33:46.235Z,48.86
2022-08-04T09:36:34.556Z,49.07
2022-08-04T09:39:17.889Z,48.97
2022-08-04T09:41:59.734Z,48.92
2022-08-04T09:45:05.820Z,48.76
2022-08-04T09:47:52.217Z,48.91
2022-08-04T09:50:33.673Z,48.59
2022-08-04T09:53:03.377Z,48.08
2022-08-04T09:55:53.906Z,48.86
2022-08-04T09:58:44.265Z,48.40
2022-08-04T10:01:19.893Z,48.27
2022-08-04T10:03:52.614Z,48.17
2022-08-04T10:06:57.136Z,48.04
2022-08-04T10:09:54.318Z,47.86
2022-08-04T10:12:23.861Z,47.80
2022-08-04T10:15:08.929Z,47.85
2022-08-04T10:17:52.027Z,47.62
2022-08-04T10:20:52.845Z,47.68
2022-08-04T10:23:56.201Z,47.25
2022-08-04T10:26:35.040Z,47.16
2022-08-04T10:29:24.076Z,46.75
2022-08-04T10:32:25.816Z,46.92
2022-08-04T10:35:07.489Z,46.70
2022-08-04T10:37:59.333Z,46.83
2022-08-04T10:40:48.354Z,46.58
2022-08-04T10:43:22.827Z,45.95
2022-08-04T10:45:57.999Z,45.76
2022-08-04T10:48:42.088Z,45.99
2022-08-04T10:51:25.961Z,46.35
2022-08-04T10:54:03.416Z,46.02
2022-08-04T10:56:39.171Z,45.34
2022-08-04T10:59:19.175Z,45.82
2022-08-04T11:02:01.980Z,45.40
2022-08-04T11:05:22.963Z,45.27
2022-08-04T11:08:17.559Z,45.04
2022-08-04T11:11:10.089Z,45.17
2022-08-04T11:14:06.928Z,44.58
2022-08-04T11:16:51.712Z,44.74
2022-08-04T11:19:44.784Z,44.68
2022-08-04T11:22:28.849Z,44.39
2022-08-04T11:25:19.603Z,44.22
2022-08-04T11:28:05.078Z,43.90
2022-08-04T11:30:53.648Z,44.01
2022-08-04T11:33:44.841Z,43.66
2022-08-04T11:36:22.754Z,43.06
2022-08-04T11:39:12.988Z,43.13
2022-08-04T11:41:48.133Z,42.98
2022-08-04T11:44:30.405Z,42.78
2022-08-04T11:47:04.849Z,42.54
2022-08-04T11:49:56.979Z,42.37
2022-08-04T11:52:26.338Z,42.25
2022-08-04T11:54:54.698Z,42.09
2022-08-04T11:57:35.328Z,41.88
2022-08-04T12:00:10.022Z,41.84
2022-08-04T12:03:01.706Z,41.26
2022-08-04T12:05:37.153Z,41.32
2022-08-04T12:09:01.581Z,41.25
2022-08-04T12:11:36.990Z,41.17
2022-08-04T12:14:26.512Z,40.77
2022-08-04T12:16:59.184Z,40.76
2022-08-04T12:20:04.532Z,40.58
2022-08-04T12:22:48.186Z,40.22
2022-08-04T12:25:22.243Z,40.31
2022-08-04T12:27:56.628Z,39.90
2022-08-04T12:31:02.137Z,39.90
2022-08-04T12:33:20.145Z,39.71
2022-08-04T12:36:11.640Z,39.68
2022-08-04T12:38:46.710Z,39.31
2022-08-04T12:41:16.224Z,39.50
2022-08-04T12:43:43.125Z,39.53
2022-08-04T12:46:11.940Z,39.38
2022-08-04T12:48:40.095Z,38.96
2022-08-04T12:51:31.147Z,39.13
2022-08-04T12:53:58.317Z,38.91
2022-08-04T12:56:29.809Z,39.10
2022-08-04T12:59:07.078Z,39.33
2022-08-04T13:02:07.883Z,39.36
2022-08-04T13:04:34.420Z,39.06
2022-08-04T13:07:25.464Z,39.15
2022-08-04T13:09:53.314Z,39.13
2022-08-04T13:12:31.837Z,39.46
2022-08-04T13:15:10.752Z,39.24
2022-08-04T13:17:57.260Z,39.45
2022-08-04T13:20:31.600Z,39.48
2022-08-04T13:23:04.052Z,39.57
2022-08-04T13:26:43.213Z,39.38
2022-08-04T13:28:26.747Z,39.33
2022-08-04T13:30:56.867Z,39.58
2022-08-04T13:33:38.564Z,39.24
2022-08-04T13:36:08.133Z,39.49
2022-08-04T13:38:38.629Z,39.34
2022-08-04T13:41:07.039Z,39.38
2022-08-04T13:44:15.331Z,39.43
2022-08-04T13:46:32.736Z,39.24
2022-08-04T13:51:57.291Z,39.37
2022-08-04T13:54:30.278Z,39.54
2022-08-04T13:57:00.587Z,39.48
2022-08-04T13:59:33.323Z,39.50
2022-08-04T14:02:15.220Z,39.65
2022-08-04T14:04:50.198Z,39.88
2022-08-04T14:07:21.355Z,39.71
2022-08-04T14:10:02.719Z,40.29
2022-08-04T14:12:38.365Z,40.29
2022-08-04T14:16:02.908Z,39.80
2022-08-04T14:18:28.297Z,40.24
2022-08-04T14:21:12.577Z,40.36
2022-08-04T14:23:50.845Z,40.30
2022-08-04T14:26:32.891Z,40.36
2022-08-04T14:29:27.456Z,40.61
2022-08-04T14:32:06.222Z,40.90
2022-08-04T14:34:41.824Z,40.83
2022-08-04T14:37:19.876Z,40.96
2022-08-04T14:40:19.072Z,40.83
2022-08-04T14:42:44.461Z,41.40
2022-08-04T14:45:30.415Z,41.35
2022-08-04T14:47:57.145Z,41.46
2022-08-04T14:50:43.362Z,41.22
2022-08-04T14:53:11.552Z,41.48
2022-08-04T14:55:39.906Z,41.66
2022-08-04T14:58:36.009Z,41.85
2022-08-04T15:00:58.089Z,41.83
2022-08-04T15:03:25.317Z,42.19
2022-08-04T15:06:00.593Z,41.87
2022-08-04T15:08:31.862Z,42.13
2022-08-04T15:11:03.303Z,42.08
2022-08-04T15:13:32.589Z,42.20
2022-08-04T15:16:07.099Z,42.11
2022-08-04T15:18:39.071Z,42.03
2022-08-04T15:21:06.811Z,42.05
2022-08-04T15:23:39.467Z,42.04
2022-08-04T15:26:09.900Z,42.46
2022-08-04T15:28:38.500Z,42.30
2022-08-04T15:31:11.700Z,42.42
2022-08-04T15:33:56.822Z,42.61
2022-08-04T15:36:57.142Z,43.23
2022-08-04T15:39:43.998Z,43.39
2022-08-04T15:42:29.248Z,43.27
2022-08-04T15:46:37.365Z,43.79
2022-08-04T15:48:12.719Z,43.83
2022-08-04T15:51:01.212Z,43.50
2022-08-04T15:54:03.483Z,43.55
2022-08-04T15:56:26.370Z,43.81
2022-08-04T15:58:57.837Z,43.26
2022-08-04T16:01:25.372Z,43.65
2022-08-04T16:04:00.470Z,43.84
2022-08-04T16:06:29.480Z,43.82
2022-08-04T16:09:01.754Z,43.62
2022-08-04T16:11:32.923Z,43.43
2022-08-04T16:14:02.676Z,43.84
2022-08-04T16:16:51.709Z,43.64
2022-08-04T16:19:55.034Z,43.92
2022-08-04T16:22:40.096Z,44.00
2022-08-04T16:25:09.805Z,43.59
2022-08-04T16:27:44.536Z,43.70
2022-08-04T16:30:14.993Z,44.03
2022-08-04T16:32:48.814Z,43.63
2022-08-04T16:35:38.093Z,43.59
2022-08-04T16:38:14.403Z,43.75
2022-08-04T16:40:44.859Z,43.59
2022-08-04T16:43:19.075Z,43.94
2022-08-04T16:45:50.162Z,43.69
2022-08-04T16:48:19.636Z,43.82
2022-08-04T16:50:49.910Z,43.78
2022-08-04T16:53:52.178Z,44.18
2022-08-04T16:56:10.530Z,44.07
2022-08-04T16:58:37.459Z,43.82
2022-08-04T17:01:32.687Z,44.26
2022-08-04T17:04:05.416Z,44.02
2022-08-04T17:06:40.610Z,44.07
2022-08-04T17:09:11.769Z,44.14
2022-08-04T17:11:38.957Z,43.85
2022-08-04T17:14:06.638Z,44.00
2022-08-04T17:16:35.933Z,43.86
2022-08-04T17:19:03.297Z,44.13
2022-08-04T17:21:32.579Z,44.24
2022-08-04T17:24:16.038Z,43.97
2022-08-04T17:26:51.726Z,44.27
2022-08-04T17:29:42.283Z,44.18
2022-08-04T17:32:16.146Z,44.07
2022-08-04T17:34:47.258Z,43.97
2022-08-04T17:40:22.885Z,44.54
2022-08-04T17:44:04.679Z,44.15
2022-08-04T17:46:29.533Z,44.07
2022-08-04T17:48:59.897Z,44.38
2022-08-04T17:52:04.342Z,44.62
2022-08-04T17:54:37.327Z,44.72
2022-08-04T17:57:20.167Z,44.52
2022-08-04T17:59:57.438Z,44.93
2022-08-04T18:02:35.201Z,44.63
2022-08-04T18:05:07.615Z,44.89
2022-08-04T18:08:45.405Z,44.78
2022-08-04T18:10:52.483Z,45.19
2022-08-04T18:13:27.817Z,45.07
2022-08-04T18:16:05.595Z,45.23
2022-08-04T18:18:33.025Z,45.35
2022-08-04T18:21:02.740Z,45.33
2022-08-04T18:23:32.111Z,45.36
2022-08-04T18:26:01.726Z,45.27
2022-08-04T18:28:30.806Z,45.33
2022-08-04T18:31:00.123Z,45.26
2022-08-04T18:33:37.569Z,45.23
2022-08-04T18:36:33.709Z,45.32
2022-08-04T18:38:55.391Z,45.41
2022-08-04T18:41:22.867Z,45.39
2022-08-04T18:43:55.747Z,45.50
2022-08-04T18:46:27.135Z,45.58
2022-08-04T18:48:54.418Z,45.57
2022-08-04T18:51:25.247Z,45.49
2022-08-04T18:53:59.147Z,45.78
2022-08-04T18:56:32.060Z,45.58
2022-08-04T18:59:05.330Z,45.58
2022-08-04T19:07:29.348Z,45.84
2022-08-04T19:09:58.125Z,45.88
2022-08-04T19:15:12.166Z,45.83
2022-08-04T19:20:28.342Z,46.02
2022-08-04T19:24:10.314Z,46.12
2022-08-04T19:26:02.975Z,46.28
2022-08-04T19:28:34.168Z,46.29
2022-08-04T19:31:06.289Z,46.25
2022-08-04T19:33:59.046Z,46.12
2022-08-04T19:36:20.783Z,46.32
2022-08-04T19:38:55.105Z,46.22
2022-08-04T19:41:22.662Z,46.17
2022-08-04T19:43:53.166Z,46.13
2022-08-04T19:46:20.036Z,46.40
2022-08-04T19:48:59.334Z,46.28
2022-08-04T19:51:33.104Z,46.45
2022-08-04T19:54:03.795Z,46.26
2022-08-04T19:56:40.172Z,46.59
2022-08-04T19:59:09.092Z,46.59
2022-08-04T20:01:44.177Z,46.71
2022-08-04T20:04:11.744Z,46.73
2022-08-04T20:06:39.413Z,46.55
2022-08-04T20:09:24.733Z,46.59
2022-08-04T20:11:53.789Z,46.73
2022-08-04T20:14:31.521Z,46.57
2022-08-04T20:17:01.811Z,46.85
2022-08-04T20:19:28.412Z,46.62
2022-08-04T20:21:57.689Z,46.71
2022-08-04T20:24:37.648Z,46.97
2022-08-04T20:27:21.560Z,46.55
2022-08-04T20:29:50.339Z,46.78
2022-08-04T20:32:22.599Z,46.51
2022-08-04T20:34:51.296Z,46.73
2022-08-04T20:37:18.756Z,46.82
2022-08-04T20:39:45.447Z,46.54
2022-08-04T20:42:27.648Z,46.60
2022-08-04T20:45:01.291Z,46.75
2022-08-04T20:47:31.165Z,46.87
2022-08-04T20:50:05.634Z,47.01
2022-08-04T20:52:37.227Z,47.04
2022-08-04T20:55:05.463Z,46.87
2022-08-04T20:57:50.055Z,47.09
2022-08-04T21:00:26.264Z,47.14
2022-08-04T21:02:56.257Z,46.67
2022-08-04T21:05:23.667Z,46.78
2022-08-04T21:07:56.659Z,47.12
2022-08-04T21:10:24.709Z,47.08
2022-08-04T21:12:52.676Z,46.88
2022-08-04T21:15:24.747Z,47.16
2022-08-04T21:17:58.870Z,47.02
2022-08-04T21:20:32.409Z,47.09
2022-08-04T21:23:02.113Z,47.20
2022-08-04T21:25:30.217Z,47.03
2022-08-04T21:27:58.558Z,47.24
2022-08-04T21:30:26.708Z,47.23
2022-08-04T21:32:55.115Z,47.34
2022-08-04T21:35:36.898Z,47.14
2022-08-04T21:38:17.114Z,47.19
2022-08-04T21:40:54.743Z,47.16
2022-08-04T21:43:23.569Z,47.12
2022-08-04T21:45:54.733Z,47.42
2022-08-04T21:48:21.457Z,47.02
2022-08-04T21:50:50.530Z,47.42
2022-08-04T21:53:19.514Z,47.17
2022-08-04T21:56:04.493Z,47.54
2022-08-04T21:58:34.570Z,47.26
2022-08-04T22:01:01.476Z,47.59
2022-08-04T22:03:53.507Z,47.27
2022-08-04T22:06:21.354Z,47.33
2022-08-04T22:08:56.084Z,47.22
2022-08-04T22:11:25.981Z,47.19
2022-08-04T22:14:11.565Z,47.69
2022-08-04T22:16:39.942Z,47.04
2022-08-04T22:19:08.805Z,47.26
2022-08-04T22:21:39.145Z,47.26
2022-08-04T22:24:13.973Z,47.65
2022-08-04T22:26:41.358Z,47.24
2022-08-04T22:29:14.448Z,47.19
2022-08-04T22:31:55.735Z,47.41
2022-08-04T22:34:23.803Z,47.73
2022-08-04T22:36:50.765Z,47.87
2022-08-04T22:39:17.563Z,47.54
2022-08-04T22:42:03.381Z,47.90
2022-08-04T22:44:32.327Z,47.97
2022-08-04T22:47:00.878Z,47.73
2022-08-04T22:49:31.415Z,47.70
2022-08-04T22:51:58.775Z,48.17
2022-08-04T22:54:28.421Z,47.80
2022-08-04T22:56:56.799Z,47.76
2022-08-04T22:59:24.036Z,47.93
2022-08-04T23:01:58.721Z,48.14
2022-08-04T23:04:29.117Z,47.89
2022-08-04T23:06:55.780Z,48.27
2022-08-04T23:09:49.006Z,48.36
2022-08-04T23:12:24.269Z,48.44
2022-08-04T23:14:53.299Z,48.06
2022-08-04T23:17:21.966Z,48.58
2022-08-04T23:19:58.019Z,48.39
2022-08-04T23:22:41.211Z,48.42
2022-08-04T23:25:16.006Z,48.52
2022-08-04T23:27:50.726Z,48.59
2022-08-04T23:30:24.544Z,48.23
2022-08-04T23:32:56.995Z,48.21
2022-08-04T23:35:23.610Z,48.24
2022-08-04T23:37:57.133Z,48.40
2022-08-04T23:40:32.409Z,48.34
2022-08-04T23:43:02.257Z,48.56
2022-08-04T23:46:04.501Z,48.80
2022-08-04T23:48:38.889Z,48.57
2022-08-04T23:51:14.381Z,48.67
2022-08-04T23:54:02.300Z,48.78
2022-08-04T23:56:33.974Z,48.62
2022-08-04T23:59:04.002Z,48.81
